Tiempo atmosférico en la estación meteorológica de Utiel, València/Valencia (761 m.)



Fecha
DESCASC
Temp. máxima en grados centígrados (hora)
DESCASC
Temp. mínima en grados centígrados (hora)
DESCASC
Temp. media en grados centígrados
DESCASC
Racha de viento máxima en m/sg (hora)
DESCASC
Velocidad máxima media en intervalos de 10 minutos(hora)
DESCASC
Precipitaciones diarias en mm
DESCASC
Precipitaciones de 00:00 a 06:00 en mm
DESCASC
Precipitaciones de 06:00 a 12:00 en mm
DESCASC
Precipitaciones de 12:00 a 18:00 en mm
DESCASC
Precipitaciones de 18:00 a 24:00 en mm
DESCASC
13-10-2019 28 (16:50) 11.7 (03:50) 19.8 9.44 (18:30) 6.67 (18:30) 0 0 0 0 0
12-10-2019 23.6 (15:20) 12.8 (09:00) 18.2 8.33 (15:00) 5.56 (13:40) 0 0 0 0 0
10-10-2019 22.3 (17:10) 12.8 (00:00) 17.5 7.22 (14:10) 5 (14:10) 0.2 0 0.2 0 0
09-10-2019 30.3 (16:30) 10.8 (00:00) 20.5 9.72 (17:40) 5.83 (18:30) 0 0 0 0 0
08-10-2019 28.2 (17:30) 10.7 (00:00) 19.5 5.56 (12:50) 3.06 (07:10) 0.4 0 0.4 0 0
07-10-2019 29.6 (17:20) 12.8 (00:00) 21.2 12.78 (12:20) 9.17 (12:10) 0 0 0 0 0
06-10-2019 29 (17:20) 8.4 (00:00) 18.7 7.5 (18:40) 4.72 (18:40) 0 0 0 0 0
05-10-2019 28.6 (17:00) 8.9 (06:50) 18.8 7.5 (16:10) 4.17 (16:10) 0 0 0 0 0
04-10-2019 29.3 (16:50) 7.2 (00:00) 18.2 6.67 (19:00) 4.17 (19:00) 0 0 0 0 0
03-10-2019 28.2 (16:20) 8.2 (00:00) 18.2 8.89 (03:20) 6.11 (03:30) 0 0 0 0 0
02-10-2019 25.8 (17:10) 9.3 (00:00) 17.5 10.83 (15:20) 6.94 (16:50) 0 0 0 0 0
01-10-2019 29 (15:50) 10.3 (00:00) 19.7 10.83 (16:30) 6.67 (17:10) 0 0 0 0 0
30-09-2019 31.6 (16:30) 9.2 (00:00) 20.4 7.78 (18:10) 5.56 (18:10) 0 0 0 0 0
29-09-2019 30.5 (16:30) 11.8 (00:00) 21.2 10 (17:00) 5 (17:00) 0 0 0 0 0
28-09-2019 27.8 (16:30) 10.7 (00:00) 19.2 8.06 (19:40) 5.56 (18:40) 0 0 0 0 0
27-09-2019 29.7 (17:00) 11 (00:00) 20.4 8.06 (16:40) 5 (17:10) 0 0 0 0 0
26-09-2019 28.4 (16:40) 10.7 (00:00) 19.5 7.5 (17:00) 3.33 (17:10) 0 0 0 0 0
25-09-2019 26.5 (16:30) 14.5 (00:00) 20.5 7.78 (15:40) 4.44 (05:00) 0 0 0 0 0
24-09-2019 28.8 (16:30) 10.1 (00:00) 19.4 11.67 (14:00) 6.67 (12:50) 0 0 0 0 0
23-09-2019 25.6 (17:00) 8.7 (00:00) 17.2 6.11 (17:30) 3.89 (00:20) 0 0 0 0 0
22-09-2019 24.8 (16:10) 14.2 (00:00) 19.5 12.22 (18:20) 7.5 (17:50) 0 0 0 0 0
21-09-2019 25.1 (14:50) 14 (00:00) 19.6 9.72 (06:50) 6.67 (07:00) 0 0 0 0 0
20-09-2019 22.5 (14:50) 13.1 (00:00) 17.8 9.72 (16:30) 6.11 (16:30) 0 0 0 0 0
19-09-2019 27.1 (15:20) 14 (00:00) 20.6 9.17 (17:10) 5.83 (17:10) 0 0 0 0 0
18-09-2019 28.6 (17:40) 13.1 (00:00) 20.9 6.11 (15:10) 4.44 (19:30) 1.8 1.8 0 0 0
17-09-2019 28.7 (16:20) 14.1 (00:00) 21.4 15.83 (20:40) 9.17 (20:40) 2 0 0 0 2
16-09-2019 26.6 (16:20) 16.9 (00:00) 21.8 6.39 (12:30) 3.89 (12:00) 0 0 0 0 0
15-09-2019 24.3 (15:50) 16.6 (00:00) 20.4 9.44 (16:10) 6.11 (16:20) 0 0 0 0 0

Gráficas

Temp. máximas Temp. mínimas Temp. medias Precipitaciones Rachas de viento máximas Velocidades máximas media en intervalos de 10 minutos

Datos horarios

Fecha y hora oficial Temperatura (ºC) Velocidad del viento (km/h) Dirección del viento Racha (km/h) Dirección de racha Precipitación (mm) Presión (hPa) Tendencia (hPa) Humedad (%)
2019-10-14 23:00:00 13.1 22 Noroeste 44 Oeste 0 929 2.7 63
2019-10-14 22:00:00 16.5 23 Oeste 35 Oeste 0 927.7 1.5 47
2019-10-14 21:00:00 16.9 12 Oeste 34 Oeste 0 927 1 58
2019-10-14 20:00:00 17.8 18 Oeste 34 Oeste 0 926.3 0.2 57
2019-10-14 19:00:00 19.9 22 Oeste 46 Sudoeste 0 926.2 -0.4 46
2019-10-14 18:00:00 20.9 23 Sudoeste 40 Sudoeste 0 926 -1.5 43
2019-10-14 17:00:00 21.1 18 Sudoeste 32 Sur 0 926.1 -2.7 59
2019-10-14 16:00:00 20.6 19 Sur 31 Sudoeste 0.2 926.6 -1.6 62
2019-10-14 15:00:00 19.6 13 Sur 23 Sur 0 927.5 -2.5 69
2019-10-14 14:00:00 17.4 7 Sur 31 Norte 0.4 928.8 -0.9 84
2019-10-14 13:00:00 16.5 13 Noroeste 25 Norte 1.2 928.2 -1.3 89
2019-10-14 12:00:00 17.3 6 Noroeste 11 Norte 0.4 930 1.8 83
2019-10-14 11:00:00 17.4 3 Nordeste 10 Oeste 0 929.7 1.6 81
2019-10-14 10:00:00 16.4 8 Noroeste 13 Oeste 0 929.5 1.3 87
2019-10-14 09:00:00 13 6 Noroeste 12 Noroeste 0 928.2 0 95
2019-10-14 08:00:00 11.7 4 Oeste 12 Noroeste 0 928.1 -0.6 95
2019-10-14 07:00:00 11.9 2 Nordeste 12 Norte 0 928.2 -1.3 95
2019-10-14 06:00:00 12.8 6 Norte 12 Norte 0 928.2 -1.9 95
2019-10-14 05:00:00 13.1 8 Noroeste 12 Noroeste 0 928.7 -1.9 95
2019-10-14 04:00:00 12.3 8 Norte 10 Norte 0 929.5 -1.4 92
2019-10-14 03:00:00 13.8 3 Sur 9 Sudoeste 0 930.1 -1.2 93
2019-10-14 02:00:00 13.3 5 Sur 10 Noroeste 0 930.6 -0.8 91
2019-10-14 01:00:00 13.5 7 Norte 10 Noroeste 0 930.9 -0.3 92
2019-10-14 00:00:00 14.3 5 Noroeste 10 Noroeste 0 931.3 0.5 89
2019-10-13 23:00:00 15.6 4 Oeste 7 Este 0 931.4 1.2 84
2019-10-13 22:00:00 17.2 6 Este 12 Sudeste 0 931.2 1.4 84
2019-10-13 21:00:00 18.2 5 Sudeste 22 Sudeste 0 930.8 1.2 82
2019-10-13 20:00:00 20 15 Sudeste 31 Sudeste 0 930.2 0.5 75
2019-10-13 19:00:00 22.9 19 Sudeste 34 Sudeste 0 929.8 -0.2 60
2019-10-13 18:00:00 27.3 13 Sudoeste 29 Sur 0 929.6 -0.9 23
2019-10-13 17:00:00 27.7 12 Sur 32 Sudoeste 0 929.7 -1.6 25
2019-10-13 16:00:00 26.8 11 Sur 22 Sur 0 930 -1.9 34
2019-10-13 15:00:00 26 11 Sur 24 Sur 0 930.5 -1.7 43
2019-10-13 14:00:00 24.3 8 Sudeste 17 Sudeste 0 931.3 -0.9 50
2019-10-13 13:00:00 23.2 5 Este 11 Este 0 931.9 0 54
2019-10-13 12:00:00 21.4 5 Sur 9 Sudeste 0 932.2 0.8 61
2019-10-13 11:00:00 19.3 4 Este 7 Sudeste 0 932.2 1 72
2019-10-13 10:00:00 15.5 4 Norte 8 Oeste 0 931.9 0.7 89
2019-10-13 09:00:00 12.3 3 Noroeste 6 Oeste 0 931.4 0.3 93
2019-10-13 08:00:00 12.9 0 Calma 6 Noroeste 0 931.2 -0.2 92
2019-10-13 07:00:00 13.4 4 Norte 5 Noroeste 0 931.2 -0.5 93
2019-10-13 06:00:00 13.2 5 Noroeste 10 Noroeste 0 931.1 -0.9 93
2019-10-13 05:00:00 12.3 5 Noroeste 10 Norte 0 931.4 -0.7 93
2019-10-13 04:00:00 12.3 5 Noroeste 9 Noroeste 0 931.7 -0.8 94
2019-10-13 03:00:00 12.8 2 Noroeste 13 Noroeste 0 932 -0.6 93
2019-10-13 02:00:00 12.8 6 Norte 12 Noroeste 0 932.1 -0.4 92
2019-10-13 01:00:00 13.5 8 Noroeste 12 Norte 0 932.5 0.5 91
2019-10-13 00:00:00 14.4 5 Norte 10 Este 0 932.6 0.7 88
2019-10-12 23:00:00 14.5 6 Nordeste 9 Sudeste 0 932.5 0.9 83
2019-10-12 22:00:00 16.4 6 Sudeste 11 Sudeste 0 932 0.5 87
2019-10-12 21:00:00 17.5 6 Este 12 Este 0 931.9 0.5 82
2019-10-12 20:00:00 18.8 8 Sudeste 23 Este 0 931.6 -0.2 75
2019-10-12 19:00:00 20.3 14 Este 21 Este 0 931.5 -0.4 67
2019-10-12 18:00:00 21.3 13 Sudeste 25 Sudeste 0 931.4 -0.9 64
2019-10-12 17:00:00 21.7 14 Sudeste 26 Sudeste 0 931.8 -1.1 60
2019-10-12 16:00:00 21.9 14 Sudeste 27 Sudeste 0 931.9 -1.6 60
2019-10-12 15:00:00 22.8 17 Sudeste 30 Este 0 932.3 -1.4 56
2019-10-12 14:00:00 22.9 18 Sudeste 29 Este 0 932.9 -0.7 57
2019-10-12 13:00:00 21.9 10 Este 27 Sudeste 0 933.5 0.2 59
2019-10-12 12:00:00 20.8 16 Sudeste 24 Sudeste 0 933.7 0.7 64
2019-10-12 11:00:00 19.3 5 Sudeste -- -- 0 933.6 1 69
2019-10-12 10:00:00 17.2 0 Calma 6 Norte 0 933.3 0.6 81
2019-10-12 09:00:00 12.8 4 Norte 10 Noroeste 0 933 0.3 89
2019-10-12 08:00:00 13.1 6 Norte 8 Norte 0 932.6 -0.3 92
2019-10-12 07:00:00 13.8 5 Noroeste 12 Noroeste 0 932.7 -0.6 93
2019-10-12 06:00:00 13.3 8 Noroeste 10 Norte 0 932.7 -1 92
2019-10-12 05:00:00 13.5 6 Norte 7 Norte 0 932.9 -1.1 93
2019-10-12 04:00:00 13.6 3 Norte 7 Norte 0 933.3 -0.6 91
2019-10-12 03:00:00 14 5 Norte 9 Noroeste 0 933.7 -0.7 91
2019-10-12 02:00:00 14.2 8 Noroeste 11 Noroeste 0 934 -0.2 92
2019-10-12 01:00:00 14.5 7 Norte 9 Norte 0 933.9 0.2 90
2019-10-12 00:00:00 15.5 4 Norte 6 Norte 0 934.4 1 88
2019-10-11 23:00:00 16.9 5 Sudeste 8 Este 0 934.2 1.2 87
2019-10-11 22:00:00 17.2 6 Sudeste 9 Sudeste 0 933.7 1 85
2019-10-11 21:00:00 18.3 3 Sudeste 24 Sudeste 0 933.4 0.6 81
2019-10-11 20:00:00 19.7 15 Sudeste 24 Sudeste 0 933 0 76
2019-10-11 19:00:00 22.2 16 Sudeste 26 Sudeste 0 932.7 -0.8 61
2019-10-11 18:00:00 24.5 15 Sudeste 25 Sudeste 0 932.8 -1.5 47
2019-10-11 17:00:00 25.1 13 Sudeste 22 Sur 0 933 -2.1 39
2019-10-11 16:00:00 25.6 14 Sudeste 22 Sudeste 0 933.5 -2.6 39
2019-10-11 15:00:00 25.2 10 Sudeste 22 Sudeste 0 934.3 -2.1 42
2019-10-11 14:00:00 23.9 8 Sudeste 17 Sudeste 0 935.1 -1.5 48
2019-10-11 13:00:00 22.4 7 Este 17 Sudeste 0 936.1 0 55
2019-10-11 12:00:00 21.4 7 Sudeste 17 Sudeste 0 936.4 0.9 59
2019-10-11 11:00:00 19.6 8 Sudeste 16 Sudeste 0 936.6 1.3 66
2019-10-11 10:00:00 18.5 10 Sudeste 15 Sudeste 0 936.1 1 74
2019-10-11 09:00:00 16.8 4 Este 10 Sudeste 0 935.5 0.2 81
2019-10-11 08:00:00 16.6 5 Sudeste 9 Sudeste 0 935.3 0.1 85
2019-10-11 07:00:00 16.7 4 Este 6 Sudeste 0 935.1 -0.3 84
2019-10-11 06:00:00 16.7 2 Sudeste 6 Este 0 935.3 -0.5 84
2019-10-11 05:00:00 16.6 2 Norte 3 Norte 0 935.2 -0.7 84
2019-10-11 04:00:00 16.6 3 Sudeste 9 Sudeste 0 935.4 -0.6 84
2019-10-11 03:00:00 16.6 6 Sudeste 10 Sudeste 0 935.8 -0.3 85
2019-10-11 02:00:00 16.6 8 Sudeste 14 Sudeste 0 935.9 -0.1 84
2019-10-11 01:00:00 16.9 6 Sudeste 11 Sudeste 0 936 0.2 82
2019-10-11 00:00:00 16.7 6 Sudeste 9 Sudeste 0 936.1 0.8 83
2019-10-10 23:00:00 16.6 3 Norte 6 Norte 0 936 1.2 79
2019-10-10 22:00:00 16.5 5 Norte 14 Sudeste 0 935.8 1.3 78
2019-10-10 21:00:00 16.3 8 Sudeste 17 Sudeste 0 935.3 1.1 80
2019-10-10 20:00:00 17.5 11 Sudeste 23 Sudeste 0 934.8 0.5 74
2019-10-10 19:00:00 19.4 15 Sudeste 24 Sudeste 0 934.5 -0.2 68
2019-10-10 18:00:00 21.3 15 Sudeste 26 Sudeste 0 934.2 -0.8 60
2019-10-10 17:00:00 22.2 12 Sudeste 24 Sudeste 0 934.3 -1.3 57
2019-10-10 16:00:00 21.8 13 Sudeste 22 Sudeste 0 934.7 -1.4 57
2019-10-10 15:00:00 21.4 13 Sudeste 26 Sudeste 0 935 -1 61
2019-10-10 14:00:00 20.1 14 Sudeste 23 Sudeste 0 935.6 -0.4 70
2019-10-10 13:00:00 18 14 Sudeste 24 Sudeste 0 936.1 0.7 83
2019-10-10 12:00:00 16.6 13 Sudeste 22 Sudeste 0.2 936 1.4 90
2019-10-10 11:00:00 16.3 11 Sudeste 17 Sudeste 0 936 1.8 93
2019-10-10 10:00:00 16 3 Este 8 Sudeste 0 935.4 1.5 87
2019-10-10 09:00:00 15 2 Noroeste 7 Noroeste 0 934.6 0.9 88
2019-10-10 08:00:00 14 6 Noroeste 10 Noroeste 0 934.2 0.3 91
2019-10-10 07:00:00 13.1 7 Norte 10 Noroeste 0 933.9 0.3 91
2019-10-10 06:00:00 13 7 Noroeste 10 Noroeste 0 933.7 -0.1 90
2019-10-10 05:00:00 14.5 5 Sudeste 9 Sudeste 0 933.9 -0.1 90
2019-10-10 04:00:00 14 3 Sur 5 Sur 0 933.6 -0.3 88
2019-10-10 03:00:00 15 0 Calma 7 Sudeste 0 933.8 0.2 87
2019-10-10 02:00:00 16.4 4 Sudeste 12 Sudeste 0 934 0.7 84
2019-10-10 01:00:00 17.8 5 Sudeste 14 Sudeste 0 933.9 1.3 82
2019-10-10 00:00:00 17.8 6 Este 12 Este 0 933.6 1.7 84
2019-10-09 23:00:00 17.8 5 Este 22 Este 0 933.3 2.4 82
2019-10-09 22:00:00 18.5 11 Este 20 Sudeste 0 932.6 2.7 77
2019-10-09 21:00:00 19.2 9 Este 19 Sudeste 0 931.9 2.4 74
2019-10-09 20:00:00 20.7 16 Sudeste 30 Sudeste 0 930.9 1.3 69
2019-10-09 19:00:00 23.9 19 Sudeste 31 Sudeste 0 929.9 -0.1 61
2019-10-09 18:00:00 26.8 20 Sudeste 35 Sudeste 0 929.5 -0.6 46
2019-10-09 17:00:00 29.9 10 Sudoeste 24 Sur 0 929.6 -1 26
2019-10-09 16:00:00 29.2 10 Sur 21 Sur 0 930 -1.2 28
2019-10-09 15:00:00 28.6 10 Sur 19 Sudeste 0 930.1 -1.6 31
2019-10-09 14:00:00 27.4 10 Sur 18 Sur 0 930.6 -1.2 39
2019-10-09 13:00:00 26.2 9 Sudeste 17 Sudeste 0 931.2 -0.3 45
2019-10-09 12:00:00 24.3 6 Sudeste 10 Sudeste 0 931.7 0.7 52
2019-10-09 11:00:00 21.3 0 Calma 6 Sudeste 0 931.8 1.2 62
2019-10-09 10:00:00 17.5 0 Calma 8 Noroeste 0 931.5 0.9 75
2019-10-09 09:00:00 12.4 6 Noroeste 9 Oeste 0 931 0.3 92
2019-10-09 08:00:00 11.4 5 Noroeste 10 Noroeste 0 930.6 -0.2 93
2019-10-09 07:00:00 11.3 5 Oeste 9 Noroeste 0 930.6 -0.5 92
2019-10-09 06:00:00 11.8 4 Noroeste 11 Oeste 0 930.7 -1.1 91
2019-10-09 05:00:00 12.6 8 Oeste 9 Noroeste 0 930.8 -1.2 90
2019-10-09 04:00:00 12.7 4 Noroeste 14 Noroeste 0 931.1 -0.9 88
2019-10-09 03:00:00 13.1 6 Norte 10 Noroeste 0 931.8 -0.4 88
2019-10-09 02:00:00 14 7 Noroeste 9 Noroeste 0 932 0.1 87
2019-10-09 01:00:00 14.8 0 Calma 9 Noroeste 0 932 0.3 84
2019-10-09 00:00:00 15.8 6 Noroeste 8 Noroeste 0 932.2 0.7 83
2019-10-08 23:00:00 16.6 6 Noroeste 12 Noroeste 0 931.9 0.8 78
2019-10-08 22:00:00 18.4 4 Noroeste 9 Sudeste 0 931.7 0.7 70
2019-10-08 21:00:00 20.8 7 Sudeste 14 Sudeste 0 931.5 0.4 63
2019-10-08 20:00:00 23.5 8 Sur 13 Sudoeste 0 931.1 -0.4 44
2019-10-08 19:00:00 26.8 5 Sur 16 Sur 0 931 -0.9 37
2019-10-08 18:00:00 27.6 7 Sur 16 Sur 0 931.1 -1.1 32
2019-10-08 17:00:00 27.6 8 Sudeste 17 Sur 0 931.5 -1.5 31
2019-10-08 16:00:00 27.2 9 Sudeste 18 Sur 0 931.9 -2 31
2019-10-08 15:00:00 26.7 9 Sudeste 20 Sudeste 0 932.2 -2.1 32
2019-10-08 14:00:00 25.8 5 Sur 17 Sur 0 933 -1.4 32
2019-10-08 13:00:00 24.6 7 Sur 20 Sudeste 0 933.9 -0.4 34
2019-10-08 12:00:00 23.3 8 Sudeste 15 Sur 0 934.3 0.5 37
2019-10-08 11:00:00 22 3 Sudeste 10 Norte 0.4 934.4 0.9 42
2019-10-08 10:00:00 17 7 Norte 10 Noroeste 0 934.3 1.1 57
2019-10-08 09:00:00 11.6 9 Noroeste 12 Noroeste 0 933.8 0.6 76
2019-10-08 08:00:00 11.1 5 Noroeste 14 Noroeste 0 933.5 0.4 76
2019-10-08 07:00:00 10.8 10 Noroeste 14 Noroeste 0 933.2 0.1 81
2019-10-08 06:00:00 11.8 8 Oeste 12 Oeste 0 933.2 0 80
2019-10-08 05:00:00 12.2 7 Noroeste 11 Sudeste 0 933.1 0.1 80
2019-10-08 04:00:00 14 10 Este 13 Este 0 933.1 0 73
2019-10-08 03:00:00 14.4 6 Norte 15 Sudoeste 0 933.2 0.5 70
2019-10-08 02:00:00 13.9 8 Sudoeste 12 Oeste 0 933 0.4 76
2019-10-08 01:00:00 15.4 6 Sur 15 Sudeste 0 933.1 1.1 68
2019-10-08 00:00:00 17.6 13 Norte 16 Norte 0 932.7 1.2 54
2019-10-07 23:00:00 17.6 5 Oeste 18 Noroeste 0 932.6 1.4 56
2019-10-07 22:00:00 18.2 13 Noroeste 15 Noroeste 0 932 1.6 53
2019-10-07 21:00:00 21.3 5 Este 12 Nordeste 0 931.5 1.3 41
2019-10-07 20:00:00 24 4 Oeste 23 Norte 0 931.2 0.9 33
2019-10-07 19:00:00 27.4 17 Norte 35 Noroeste 0 930.4 -0.1 25
2019-10-07 18:00:00 28.2 22 Norte 37 Norte 0 930.2 -0.5 21
2019-10-07 17:00:00 28.9 17 Norte 38 Norte 0 930.3 -0.8 18
2019-10-07 16:00:00 29.1 21 Nordeste 42 Norte 0 930.5 -0.8 18
2019-10-07 15:00:00 27.6 26 Norte 40 Norte 0 930.7 -0.7 21
2019-10-07 14:00:00 27.8 21 Norte 40 Norte 0 931.1 -0.6 20
2019-10-07 13:00:00 25.2 17 Norte 46 Norte 0 931.3 -0.5 21
2019-10-07 12:00:00 23.2 30 Norte 46 Norte 0 931.4 0.1 22
2019-10-07 11:00:00 20.6 20 Norte 36 Norte 0 931.7 0.8 23
2019-10-07 10:00:00 18.7 17 Norte 30 Noroeste 0 931.8 0.8 35
2019-10-07 09:00:00 13.4 9 Sudoeste 14 Oeste 0 931.3 0.7 69
2019-10-07 08:00:00 13.2 7 Oeste 12 Oeste 0 930.9 -0.1 70
2019-10-07 07:00:00 14 9 Noroeste 30 Norte 0 931 -0.5 66
2019-10-07 06:00:00 14.4 24 Noroeste 32 Noroeste 0 930.6 -1.2 62
2019-10-07 05:00:00 13.6 15 Noroeste 21 Noroeste 0 931 -1 67
2019-10-07 04:00:00 13.4 13 Noroeste 18 Noroeste 0 931.5 -0.9 68
2019-10-07 03:00:00 14.3 13 Noroeste 16 Noroeste 0 931.8 -0.4 65
2019-10-07 02:00:00 15.2 13 Noroeste 21 Noroeste 0 932 -0.2 63
2019-10-07 01:00:00 14.6 10 Noroeste 17 Noroeste 0 932.4 0.6 71
2019-10-07 00:00:00 14.3 5 Norte 9 Noroeste 0 932.2 0.9 76
2019-10-06 23:00:00 16.4 6 Noroeste 9 Noroeste 0 932.2 1.6 76
2019-10-06 22:00:00 18.2 4 Norte 18 Noroeste 0 931.8 1.4 60
2019-10-06 21:00:00 20.8 7 Nordeste 18 Oeste 0 931.3 0.7 32
2019-10-06 20:00:00 22.8 12 Oeste 20 Oeste 0 930.6 -0.2 31
2019-10-06 19:00:00 26.7 11 Oeste 27 Oeste 0 930.4 -0.8 23
2019-10-06 18:00:00 28.5 13 Noroeste 25 Oeste 0 930.6 -1.1 17
2019-10-06 17:00:00 28.7 14 Sudoeste 24 Oeste 0 930.8 -1.8 23
2019-10-06 16:00:00 27.2 11 Sudoeste 26 Oeste 0 931.2 -1.8 25
2019-10-06 15:00:00 28 12 Noroeste 26 Noroeste 0 931.7 -1.6 19
2019-10-06 14:00:00 27.6 11 Noroeste 25 Norte 0 932.6 -0.4 25
2019-10-06 13:00:00 26 9 Sur 16 Sur 0 933 0.2 31
2019-10-06 12:00:00 22.6 5 Sudeste 8 Sudeste 0 933.3 1.1 44
2019-10-06 11:00:00 19.1 3 Sudeste 6 Sudeste 0 933 1.3 56
2019-10-06 10:00:00 13.7 3 Oeste 6 Norte 0 932.8 1.2 73
2019-10-06 09:00:00 8.5 5 Noroeste 8 Norte 0 932.2 0.8 86
2019-10-06 08:00:00 8.5 2 Este 8 Sur 0 931.7 0.4 84
2019-10-06 07:00:00 9.1 5 Oeste 11 Oeste 0 931.6 0.1 84
2019-10-06 06:00:00 8.8 8 Noroeste 12 Noroeste 0 931.4 -0.1 85
2019-10-06 05:00:00 9.1 6 Noroeste 9 Oeste 0 931.3 -0.1 86
2019-10-06 04:00:00 10.2 7 Noroeste 12 Norte 0 931.5 0 85
2019-10-06 03:00:00 10.4 9 Norte 11 Norte 0 931.5 0 87
2019-10-06 02:00:00 11.5 5 Oeste 8 Oeste 0 931.4 -0.1 86
2019-10-06 01:00:00 12.5 8 Noroeste 12 Noroeste 0 931.5 0.4 87
2019-10-06 00:00:00 13.9 3 Nordeste 8 Norte 0 931.5 1.1 85
2019-10-05 23:00:00 15.5 8 Noroeste 12 Noroeste 0 931.5 1.7 87
2019-10-05 22:00:00 16.4 9 Noroeste 13 Noroeste 0 931.1 1.7 82
2019-10-05 21:00:00 19.4 6 Sudeste 22 Sudeste 0 930.4 1.1 72
2019-10-05 20:00:00 23.4 12 Sudoeste 20 Sudoeste 0 929.8 0.6 28
2019-10-05 19:00:00 26.9 12 Sudoeste 23 Oeste 0 929.4 0.1 22
2019-10-05 18:00:00 28.1 12 Oeste 26 Oeste 0 929.3 -0.6 20
2019-10-05 17:00:00 28.6 9 Sudoeste 27 Oeste 0 929.2 -1.2 21
2019-10-05 16:00:00 28.1 13 Sudoeste 24 Oeste 0 929.3 -1.6 20
2019-10-05 15:00:00 27.2 14 Oeste 24 Oeste 0 929.9 -1.4 22
2019-10-05 14:00:00 26.6 8 Sudoeste 25 Sudoeste 0 930.4 -0.9 26
2019-10-05 13:00:00 24.4 8 Sudeste 14 Sudeste 0 930.9 0 30
2019-10-05 12:00:00 22.5 4 Sudeste 9 Sudeste 0 931.3 0.9 33
2019-10-05 11:00:00 19.7 3 Sur 5 Sudeste 0 931.3 1.3 39
2019-10-05 10:00:00 16 0 Calma 6 Noroeste 0 930.9 1.1 53
2019-10-05 09:00:00 9.6 4 Noroeste 6 Noroeste 0 930.4 0.6 74
2019-10-05 08:00:00 9.3 0 Calma 7 Noroeste 0 930 0.1 70
2019-10-05 07:00:00 8.9 5 Noroeste 11 Noroeste 0 929.8 -0.2 72
2019-10-05 06:00:00 9.1 8 Oeste 11 Oeste 0 929.8 -0.3 70
2019-10-05 05:00:00 9.6 9 Noroeste 11 Norte 0 929.9 0 71
2019-10-05 04:00:00 10.1 4 Norte 12 Noroeste 0 930 0 69
2019-10-05 03:00:00 10.1 6 Norte 9 Noroeste 0 930.1 0.1 69
2019-10-05 02:00:00 12.7 4 Norte 9 Sudoeste 0 929.9 0 63
2019-10-05 01:00:00 14.5 2 Oeste 10 Norte 0 930 0.1 50
2019-10-05 00:00:00 15.2 4 Nordeste 11 Norte 0 930 0.4 47
2019-10-04 23:00:00 16.4 10 Noroeste 15 Noroeste 0 929.9 0.8 44
2019-10-04 22:00:00 19 3 Este 8 Nordeste 0 929.9 1.1 36
2019-10-04 21:00:00 20.4 8 Sudoeste 14 Sudoeste 0 929.6 0.5 32
2019-10-04 20:00:00 23.9 -- -- -- -- 0 929.1 -0.2 25
2019-10-04 19:00:00 27.2 15 Oeste 24 Oeste 0 928.8 -0.9 19
2019-10-04 18:00:00 28.6 11 Oeste 21 Oeste 0 929.1 -1.4 16
2019-10-04 17:00:00 29 13 Oeste 21 Oeste 0 929.3 -2 14
2019-10-04 16:00:00 28.8 8 Sudoeste 21 Sur 0 929.7 -2.2 17
2019-10-04 15:00:00 27.7 9 Sur 22 Sudoeste 0 930.5 -1.9 19
2019-10-04 14:00:00 27 10 Sur 19 Sur 0 931.3 -1.1 22
2019-10-04 13:00:00 25.8 7 Sur 13 Sudeste 0 931.9 -0.4 25
2019-10-04 12:00:00 23.9 5 Sur 10 Este 0 932.4 0.4 30
2019-10-04 11:00:00 21.1 4 Sur 7 Sur 0 932.4 0.5 38
2019-10-04 10:00:00 15.6 0 Calma 11 Noroeste 0 932.3 0.6 49
2019-10-04 09:00:00 8.8 8 Noroeste 12 Noroeste 0 932 0.4 73
2019-10-04 08:00:00 7.6 7 Norte 11 Oeste 0 931.9 0.3 72
2019-10-04 07:00:00 8.8 2 Sudoeste 6 Sur 0 931.7 0.2 67
2019-10-04 06:00:00 8.6 6 Noroeste 10 Oeste 0 931.6 -0.2 68
2019-10-04 05:00:00 10 7 Oeste 14 Oeste 0 931.6 -0.4 61
2019-10-04 04:00:00 10.1 8 Oeste 14 Noroeste 0 931.5 -0.4 61
2019-10-04 03:00:00 10.2 6 Oeste 8 Sudoeste 0 931.8 0.3 58
2019-10-04 02:00:00 11.1 4 Noroeste 9 Sudeste 0 932 0.6 57
2019-10-04 01:00:00 13.4 5 Norte 14 Noroeste 0 931.9 0.5 47
2019-10-04 00:00:00 13.6 10 Oeste 18 Noroeste 0 931.5 0.4 46
2019-10-03 23:00:00 15.5 4 Oeste 12 Norte 0 931.4 1 39
2019-10-03 22:00:00 18.9 4 Nordeste 19 Oeste 0 931.4 1.5 29
2019-10-03 21:00:00 20.4 15 Oeste 27 Oeste 0 931.1 1.5 24
2019-10-03 20:00:00 22.2 14 Sudoeste 30 Oeste 0 930.4 0.5 23
2019-10-03 19:00:00 25.6 17 Oeste 30 Oeste 0 929.9 -0.2 20
2019-10-03 18:00:00 27.7 10 Oeste 22 Oeste 0 929.6 -0.9 14
2019-10-03 17:00:00 28.1 12 Sudoeste 21 Oeste 0 929.9 -1.1 14
2019-10-03 16:00:00 27.5 12 Oeste 20 Oeste 0 930.1 -1.4 15
2019-10-03 15:00:00 25.7 14 Oeste 19 Oeste 0 930.5 -1.3 18
2019-10-03 14:00:00 24 7 Noroeste 22 Oeste 0 931 -0.8 23
2019-10-03 13:00:00 22 10 Oeste 20 Oeste 0 931.5 0.1 27
2019-10-03 12:00:00 20.4 6 Sudoeste 14 Sudoeste 0 931.8 0.4 32
2019-10-03 11:00:00 17.7 4 Norte 20 Norte 0 931.8 0.6 36
2019-10-03 10:00:00 13.4 4 Nordeste 17 Norte 0 931.4 0.5 58
2019-10-03 09:00:00 9.4 9 Oeste 17 Noroeste 0 931.4 0.3 77
2019-10-03 08:00:00 8.4 10 Noroeste 16 Noroeste 0 931.2 0.3 79
2019-10-03 07:00:00 9.2 13 Noroeste 16 Noroeste 0 930.9 0.1 78
2019-10-03 06:00:00 9.9 9 Oeste 16 Noroeste 0 931.1 -0.4 75
2019-10-03 05:00:00 12 3 Oeste 22 Norte 0 930.9 -1.1 67
2019-10-03 04:00:00 12.5 14 Norte 32 Norte 0 930.8 -1.6 66
2019-10-03 03:00:00 12.8 20 Norte 30 Noroeste 0 931.5 -0.5 65
2019-10-03 02:00:00 13.6 14 Norte 30 Norte 0 932 0.4 60
2019-10-03 01:00:00 14.3 13 Noroeste 31 Norte 0 932.4 1.1 58
2019-10-03 00:00:00 14.8 19 Norte 28 Norte 0 932 1.5 55
2019-10-02 23:00:00 15.9 19 Noroeste 30 Noroeste 0 931.6 1.8 50
2019-10-02 22:00:00 15.8 11 Noroeste 19 Noroeste 0 931.3 2 47
2019-10-02 21:00:00 17.7 6 Norte 18 Norte 0 930.5 1.6 40
2019-10-02 20:00:00 19.8 14 Norte 31 Norte 0 929.8 0.9 34
2019-10-02 19:00:00 23 19 Norte 38 Norte 0 929.3 0.4 28
2019-10-02 18:00:00 24.5 22 Norte 35 Norte 0 928.9 -0.2 25
2019-10-02 17:00:00 25.7 23 Norte 39 Norte 0 928.9 -0.6 23
2019-10-02 16:00:00 24.9 22 Norte 39 Norte 0 928.9 -1.1 22
2019-10-02 15:00:00 24.8 18 Norte 38 Nordeste 0 929.1 -1.3 24
2019-10-02 14:00:00 23.4 19 Norte 35 Norte 0 929.5 -0.9 28
2019-10-02 13:00:00 21.3 16 Noroeste 31 Norte 0 930 0 35
2019-10-02 12:00:00 20.8 15 Norte 28 Norte 0 930.4 1 38
2019-10-02 11:00:00 18.7 9 Norte 17 Nordeste 0 930.4 1.7 42
2019-10-02 10:00:00 14.1 4 Noroeste 10 Noroeste 0 930 1.5 65
2019-10-02 09:00:00 11.2 6 Norte 8 Norte 0 929.4 1.2 73
2019-10-02 08:00:00 9.8 5 Norte 9 Oeste 0 928.7 0.7 76
2019-10-02 07:00:00 9.8 8 Noroeste 12 Oeste 0 928.5 0.5 75
2019-10-02 06:00:00 10.7 9 Oeste 12 Sudoeste 0 928.2 -0.2 71
2019-10-02 05:00:00 11.5 6 Noroeste 14 Oeste 0 928 -0.1 68
2019-10-02 04:00:00 13 14 Oeste 16 Oeste 0 928 0 62
2019-10-02 03:00:00 12.8 4 Noroeste 11 Noroeste 0 928.4 0.4 60
2019-10-02 02:00:00 13.8 12 Oeste 14 Oeste 0 928.1 0.6 57
2019-10-02 01:00:00 16.9 12 Noroeste 23 Noroeste 0 928 0.8 44
2019-10-02 00:00:00 18.5 17 Norte 26 Noroeste 0 928 1.2 38
2019-10-01 23:00:00 20.1 17 Noroeste 26 Noroeste 0 927.5 1.2 32
2019-10-01 22:00:00 20.7 14 Noroeste 27 Oeste 0 927.2 1.2 29
2019-10-01 21:00:00 22.3 16 Oeste 29 Oeste 0 926.8 1 22
2019-10-01 20:00:00 23.5 16 Oeste 35 Noroeste 0 926.3 0.5 22
2019-10-01 19:00:00 26.4 21 Oeste 33 Oeste 0 926 0 20
2019-10-01 18:00:00 27.6 22 Oeste 38 Noroeste 0 925.8 -0.8 20
2019-10-01 17:00:00 28.2 22 Oeste 39 Oeste 0 925.8 -1.6 21
2019-10-01 16:00:00 28.9 20 Noroeste 37 Noroeste 0 926 -2 19
2019-10-01 15:00:00 28.2 22 Noroeste 36 Noroeste 0 926.6 -1.8 19
2019-10-01 14:00:00 27.5 19 Noroeste 31 Noroeste 0 927.4 -1.5 21
2019-10-01 13:00:00 26.3 19 Oeste 29 Sudoeste 0 928 -0.4 30
2019-10-01 12:00:00 24.9 13 Noroeste 24 Noroeste 0 928.4 0.3 32
2019-10-01 11:00:00 20.9 2 Norte 5 Norte 0 928.9 0.8 63
2019-10-01 10:00:00 16.1 3 Nordeste 6 Noroeste 0 928.4 0.2 82
2019-10-01 09:00:00 11.6 5 Noroeste 8 Noroeste 0 928.1 -0.2 93
2019-10-01 08:00:00 10.6 4 Oeste 9 Oeste 0 928.1 -0.5 91
2019-10-01 07:00:00 11.6 6 Noroeste 9 Noroeste 0 928.2 -1.1 92
2019-10-01 06:00:00 12.3 5 Norte 13 Noroeste 0 928.3 -1.6 92
2019-10-01 05:00:00 12.5 7 Noroeste 10 Noroeste 0 928.6 -1.3 90
2019-10-01 04:00:00 13.7 5 Oeste 11 Noroeste 0 929.3 -1.2 91
2019-10-01 03:00:00 14.9 6 Noroeste 13 Noroeste 0 929.9 -0.9 91
2019-10-01 02:00:00 15.3 3 Norte 9 Noroeste 0 929.9 -0.8 90
2019-10-01 01:00:00 15.9 6 Norte 10 Norte 0 930.5 -0.2 88
2019-10-01 00:00:00 16.9 3 Norte 8 Noroeste 0 930.8 0.4 86
2019-09-30 23:00:00 17.8 7 Noroeste 8 Noroeste 0 930.7 0.7 86
2019-09-30 22:00:00 18.8 5 Noroeste 9 Sur 0 930.7 1 80
2019-09-30 21:00:00 21 3 Este 14 Sudeste 0 930.4 0.7 73
2019-09-30 20:00:00 23 8 Sudeste 24 Sudeste 0 930 0 65
2019-09-30 19:00:00 25.7 15 Sudeste 28 Sudeste 0 929.7 -0.7 49
2019-09-30 18:00:00 28.6 14 Sudeste 24 Sudeste 0 929.7 -1.2 39
2019-09-30 17:00:00 31.2 10 Oeste 24 Sudoeste 0 930 -1.8 12
2019-09-30 16:00:00 31.2 10 Sudoeste 19 Sur 0 930.4 -2 14
2019-09-30 15:00:00 30.9 5 Sur 18 Sur 0 930.9 -1.7 15
2019-09-30 14:00:00 30 6 Sur 17 Sudeste 0 931.8 -1 16
2019-09-30 13:00:00 28.9 4 Sudeste 10 Sudeste 0 932.4 -0.2 19
2019-09-30 12:00:00 26.3 3 Sudeste 6 Sur 0 932.6 0.4 22
2019-09-30 11:00:00 22 3 Noroeste 6 Noroeste 0 932.8 0.8 37
2019-09-30 10:00:00 16.7 4 Noroeste 8 Noroeste 0 932.6 1 51
2019-09-30 09:00:00 11.2 8 Noroeste 11 Noroeste 0 932.2 0.7 68
2019-09-30 08:00:00 9.4 5 Noroeste 12 Sur 0 932 0.4 71
2019-09-30 07:00:00 10.5 4 Oeste 10 Sudoeste 0 931.6 -0.4 66
2019-09-30 06:00:00 10.3 7 Oeste 11 Noroeste 0 931.5 -0.8 67
2019-09-30 05:00:00 10.9 8 Noroeste 13 Noroeste 0 931.6 -0.6 67
2019-09-30 04:00:00 11.3 8 Noroeste 13 Norte 0 932 0.1 65
2019-09-30 03:00:00 14 7 Norte 13 Oeste 0 932.3 0.1 52
2019-09-30 02:00:00 14.9 11 Sudoeste 14 Sudoeste 0 932.2 -0.1 48
2019-09-30 01:00:00 14.7 10 Noroeste 17 Noroeste 0 931.9 -0.2 51
2019-09-30 00:00:00 14.9 10 Noroeste 14 Noroeste 0 932.2 0.8 53
2019-09-29 23:00:00 17.1 2 Norte 6 Norte 0 932.3 1.2 42
2019-09-29 22:00:00 19.6 0 Calma 13 Oeste 0 932.1 1.1 31
2019-09-29 21:00:00 21 12 Oeste 16 Oeste 0 931.4 0.4 28
2019-09-29 20:00:00 24.9 13 Oeste 20 Oeste 0 931.1 -0.3 22
2019-09-29 19:00:00 28.8 12 Oeste 26 Oeste 0 931 -0.7 19
2019-09-29 18:00:00 29.9 14 Oeste 31 Oeste 0 931 -1.3 15
2019-09-29 17:00:00 30.3 18 Oeste 36 Oeste 0 931.4 -1.6 17
2019-09-29 16:00:00 30.3 14 Oeste 30 Oeste 0 931.7 -1.7 17
2019-09-29 15:00:00 29.5 13 Oeste 22 Oeste 0 932.3 -1.3 21
2019-09-29 14:00:00 27.9 6 Sur 20 Sudeste 0 933 -0.6 40
2019-09-29 13:00:00 26.8 9 Sudoeste 20 Sudoeste 0 933.4 0.2 31
2019-09-29 12:00:00 24.4 9 Sur 19 Sur 0 933.6 0.5 50
2019-09-29 11:00:00 20.9 3 Sudoeste -- -- 0 933.6 0.8 70
2019-09-29 10:00:00 15.5 4 Noroeste 11 Noroeste 0 933.2 0.7 95
2019-09-29 09:00:00 12.5 7 Noroeste 10 Noroeste 0 933.1 0.3 95
2019-09-29 08:00:00 12.1 7 Noroeste 9 Noroeste 0 932.8 -0.2 95
2019-09-29 07:00:00 14.5 8 Norte 14 Norte 0 932.5 -0.9 95
2019-09-29 06:00:00 15.5 10 Noroeste 14 Norte 0 932.8 -1 95
2019-09-29 05:00:00 15.9 8 Noroeste 12 Norte 0 933 -0.9 95
2019-09-29 04:00:00 16 5 Norte 10 Noroeste 0 933.4 -0.8 94
2019-09-29 03:00:00 15.6 6 Noroeste 9 Noroeste 0 933.8 -0.5 93
2019-09-29 02:00:00 15.2 5 Norte 10 Noroeste 0 933.9 -0.4 92
2019-09-29 01:00:00 15.6 6 Norte 8 Norte 0 934.2 -0.1 90
2019-09-29 00:00:00 16.5 3 Norte 9 Noroeste 0 934.3 0.5 88
2019-09-28 23:00:00 17.6 5 Noroeste 8 Noroeste 0 934.3 0.7 87
2019-09-28 22:00:00 18.9 3 Norte 11 Sudeste 0 934.3 0.9 83
2019-09-28 21:00:00 20.1 5 Sur 17 Sudeste 0 933.8 0.6 77
2019-09-28 20:00:00 21.8 12 Sudeste 29 Sudeste 0 933.6 0.3 71
2019-09-28 19:00:00 24.3 19 Sudeste 28 Sudeste 0 933.4 -0.3 58
2019-09-28 18:00:00 26.4 17 Sudeste 28 Sudeste 0 933.2 -1 43
2019-09-28 17:00:00 27.3 15 Sudeste 25 Sudeste 0 933.3 -1.6 39
2019-09-28 16:00:00 27.3 15 Sudeste 24 Sudeste 0 933.7 -1.6 40
2019-09-28 15:00:00 27.1 12 Sudeste 24 Sudeste 0 934.2 -1.4 42
2019-09-28 14:00:00 26.1 9 Sudeste 21 Sudeste 0 934.9 -0.6 46
2019-09-28 13:00:00 24.8 10 Sudeste 20 Sur 0 935.3 0.5 46
2019-09-28 12:00:00 23.4 9 Sudeste 14 Sur 0 935.6 1.5 46
2019-09-28 11:00:00 21.8 3 Sur 5 Sudeste 0 935.5 1.9 41
2019-09-28 10:00:00 17.2 0 Calma 8 Norte 0 934.8 1.3 59
2019-09-28 09:00:00 11.6 8 Norte 10 Norte 0 934.1 0.6 75
2019-09-28 08:00:00 10.9 4 Norte 8 Noroeste 0 933.6 0.2 74
2019-09-28 07:00:00 11.5 6 Noroeste 10 Noroeste 0 933.5 -0.1 73
2019-09-28 06:00:00 12.6 6 Noroeste 18 Noroeste 0 933.5 -0.2 68
2019-09-28 05:00:00 11.7 14 Noroeste 17 Noroeste 0 933.4 -0.1 74
2019-09-28 04:00:00 11.9 5 Noroeste 10 Noroeste 0 933.6 0.1 75
2019-09-28 03:00:00 12.9 7 Noroeste 11 Noroeste 0 933.7 0.3 69
2019-09-28 02:00:00 13.8 4 Norte 9 Noroeste 0 933.5 0.4 67
2019-09-28 01:00:00 14.5 7 Noroeste 10 Noroeste 0 933.5 0.8 65
2019-09-28 00:00:00 17.8 2 Sudeste 9 Norte 0 933.4 1.2 48
2019-09-27 23:00:00 17.9 6 Norte 15 Noroeste 0 933.1 1.3 50
2019-09-27 22:00:00 20.5 11 Norte 20 Noroeste 0 932.7 1.1 39
2019-09-27 21:00:00 21.2 12 Oeste 16 Oeste 0 932.2 0.9 39
2019-09-27 20:00:00 25 13 Oeste 26 Oeste 0 931.8 0.4 28
2019-09-27 19:00:00 27.8 15 Oeste 27 Oeste 0 931.6 -0.1 23
2019-09-27 18:00:00 29 14 Oeste 29 Oeste 0 931.3 -1.1 22
2019-09-27 17:00:00 29.7 14 Sudoeste 29 Oeste 0 931.4 -1.4 21
2019-09-27 16:00:00 29.1 11 Oeste 23 Oeste 0 931.7 -1.4 23
2019-09-27 15:00:00 28.7 12 Oeste 24 Sudoeste 0 932.4 -1.1 24
2019-09-27 14:00:00 27.6 13 Oeste 21 Oeste 0 932.8 -0.9 27
2019-09-27 13:00:00 26.6 11 Sudoeste 21 Sudoeste 0 933.1 -0.5 36
2019-09-27 12:00:00 24.9 6 Sudeste 10 Sudeste 0 933.5 0.1 47
2019-09-27 11:00:00 21.5 4 Sur 8 Sur 0 933.7 0.5 62
2019-09-27 10:00:00 17.3 0 Calma 5 Norte 0 933.6 0.8 76
2019-09-27 09:00:00 12.5 3 Oeste 8 Noroeste 0 933.4 0.6 93
2019-09-27 08:00:00 11.2 4 Noroeste 7 Oeste 0 933.2 0.3 91
2019-09-27 07:00:00 12.5 5 Oeste 9 Oeste 0 932.8 -0.4 92
2019-09-27 06:00:00 12.8 7 Noroeste 11 Noroeste 0 932.8 -0.7 92
2019-09-27 05:00:00 12.2 5 Oeste 8 Noroeste 0 932.9 -0.6 89
2019-09-27 04:00:00 13.1 3 Oeste 9 Noroeste 0 933.2 -0.7 89
2019-09-27 03:00:00 13.2 8 Noroeste 12 Noroeste 0 933.5 -0.3 88
2019-09-27 02:00:00 13.9 7 Noroeste 11 Noroeste 0 933.5 0 84
2019-09-27 01:00:00 14.5 6 Noroeste 10 Norte 0 933.9 0.6 83
2019-09-27 00:00:00 15.5 7 Norte 9 Norte 0 933.8 1.3 72
2019-09-26 23:00:00 16.4 8 Noroeste 11 Noroeste 0 933.5 1.3 65
2019-09-26 22:00:00 18.9 3 Norte 9 Oeste 0 933.3 1.3 54
2019-09-26 21:00:00 19.5 10 Oeste 13 Noroeste 0 932.5 0.6 52
2019-09-26 20:00:00 23.7 9 Oeste 14 Oeste 0 932.2 0.1 35
2019-09-26 19:00:00 27.3 10 Sudoeste 19 Sudoeste 0 932 -0.5 27
2019-09-26 18:00:00 27.9 11 Sudoeste 21 Sudoeste 0 931.9 -0.9 25
2019-09-26 17:00:00 28.2 10 Sur 27 Sudoeste 0 932.1 -1.5 25
2019-09-26 16:00:00 28 9 Sudoeste 26 Sur 0 932.5 -1.6 26
2019-09-26 15:00:00 26.6 10 Sur 21 Oeste 0 932.8 -1.7 30
2019-09-26 14:00:00 26 3 Sudoeste 18 Sur 0 933.6 -0.9 35
2019-09-26 13:00:00 24.3 6 Sur 15 Sur 0 934.1 0 41
2019-09-26 12:00:00 22.7 8 Sur 14 Sur 0 934.5 0.8 44
2019-09-26 11:00:00 19.9 4 Noroeste 10 Noroeste 0 934.5 1.1 55
2019-09-26 10:00:00 15.9 6 Noroeste 12 Noroeste 0 934.1 1.1 77
2019-09-26 09:00:00 11.4 9 Norte 12 Norte 0 933.7 1 94
2019-09-26 08:00:00 10.8 4 Noroeste 9 Noroeste 0 933.4 0.9 94
2019-09-26 07:00:00 12.3 4 Noroeste 9 Norte 0 933 0.8 94
2019-09-26 06:00:00 13.5 5 Noroeste 12 Noroeste 0 932.7 0.2 94
2019-09-26 05:00:00 14.3 7 Noroeste 12 Noroeste 0 932.5 0 94
2019-09-26 04:00:00 14.7 5 Noroeste 9 Noroeste 0 932.2 -0.4 93
2019-09-26 03:00:00 13.8 5 Norte 10 Noroeste 0 932.5 0.1 91
2019-09-26 02:00:00 14.5 3 Norte 8 Norte 0 932.5 0.3 90
2019-09-26 01:00:00 14.7 6 Norte 10 Noroeste 0 932.6 0.7 88
2019-09-26 00:00:00 15.7 7 Noroeste 10 Noroeste 0 932.4 1.3 88
2019-09-25 23:00:00 17 6 Oeste 10 Sur 0 932.2 1.8 80
2019-09-25 22:00:00 18.2 5 Norte 11 Nordeste 0 931.9 1.8 67
2019-09-25 21:00:00 20.4 4 Noroeste 18 Oeste 0 931.1 1.3 46
2019-09-25 20:00:00 22.6 14 Oeste 23 Oeste 0 930.4 0.6 38
2019-09-25 19:00:00 25 14 Oeste 26 Oeste 0 930.1 0 33
2019-09-25 18:00:00 25.8 14 Sudoeste 26 Sudoeste 0 929.8 -0.6 32
2019-09-25 17:00:00 26.4 12 Sudoeste 27 Oeste 0 929.8 -1.1 31
2019-09-25 16:00:00 26 13 Oeste 28 Sudoeste 0 930.1 -1.2 32
2019-09-25 15:00:00 25.4 6 Oeste 20 Oeste 0 930.4 -1.2 37
2019-09-25 14:00:00 24.5 7 Oeste 18 Oeste 0 930.9 -0.5 40
2019-09-25 13:00:00 23 11 Noroeste 27 Noroeste 0 931.3 0.4 43
2019-09-25 12:00:00 22.3 14 Oeste 23 Noroeste 0 931.6 1 48
2019-09-25 11:00:00 21.4 10 Norte 19 Norte 0 931.4 1.2 55
2019-09-25 10:00:00 18.7 12 Norte 19 Noroeste 0 930.9 1 68
2019-09-25 09:00:00 15.6 10 Noroeste 15 Noroeste 0 930.6 0.7 88
2019-09-25 08:00:00 14.6 13 Norte 21 Oeste 0 930.2 0.4 89
2019-09-25 07:00:00 15.6 15 Oeste 23 Oeste 0 929.9 0 85
2019-09-25 06:00:00 16.1 16 Oeste 22 Oeste 0 929.9 -0.4 83
2019-09-25 05:00:00 16.3 16 Noroeste 22 Noroeste 0 929.8 -0.6 79
2019-09-25 04:00:00 16.8 10 Noroeste 15 Noroeste 0 929.9 -0.9 74
2019-09-25 03:00:00 17.7 7 Noroeste 24 Noroeste 0 930.3 -0.5 68
2019-09-25 02:00:00 17.7 12 Noroeste 25 Noroeste 0 930.4 -0.6 60
2019-09-25 01:00:00 14.7 7 Noroeste 8 Noroeste 0 930.8 -0.3 69
2019-09-25 00:00:00 15.5 4 Noroeste 9 Sudoeste 0 930.8 -0.1 65
2019-09-24 23:00:00 17.5 6 Oeste 9 Noroeste 0 931 0.6 56
2019-09-24 22:00:00 18.9 11 Oeste 16 Noroeste 0 931.1 0.9 51
2019-09-24 21:00:00 20.6 12 Oeste 21 Oeste 0 930.9 0.7 45
2019-09-24 20:00:00 23.8 13 Oeste 24 Oeste 0 930.4 -0.1 34
2019-09-24 19:00:00 26.8 19 Oeste 31 Oeste 0 930.2 -0.6 26
2019-09-24 18:00:00 28 21 Oeste 31 Oeste 0 930.2 -1.2 24
2019-09-24 17:00:00 28.1 21 Oeste 38 Oeste 0 930.5 -1.6 24
2019-09-24 16:00:00 28.3 21 Oeste 35 Oeste 0 930.8 -2 23
2019-09-24 15:00:00 27.8 19 Noroeste 36 Noroeste 0 931.4 -1.9 22
2019-09-24 14:00:00 26.7 23 Oeste 42 Oeste 0 932.1 -1.3 24
2019-09-24 13:00:00 24.8 22 Noroeste 35 Noroeste 0 932.8 -0.4 31
2019-09-24 12:00:00 23.4 19 Oeste 30 Oeste 0 933.3 0.5 38
2019-09-24 11:00:00 21.9 14 Noroeste 26 Noroeste 0 933.4 0.9 43
2019-09-24 10:00:00 18.3 4 Sur 9 Sur 0 933.2 1 57
2019-09-24 09:00:00 12.4 5 Sudoeste 12 Sudoeste 0 932.8 0.6 80
2019-09-24 08:00:00 10.7 9 Sudoeste 14 Sudoeste 0 932.5 0.1 84
2019-09-24 07:00:00 10.8 5 Nordeste 7 Oeste 0 932.2 -0.6 84
2019-09-24 06:00:00 11.3 4 Noroeste 7 Noroeste 0 932.2 -1.1 82
2019-09-24 05:00:00 11.5 5 Noroeste 10 Noroeste 0 932.4 -1.2 82
2019-09-24 04:00:00 12.6 8 Noroeste 13 Noroeste 0 932.8 -0.9 78
2019-09-24 03:00:00 13.9 3 Norte 6 Oeste 0 933.3 -0.9 73
2019-09-24 02:00:00 15.7 5 Noroeste 9 Noroeste 0 933.6 -0.5 65
2019-09-24 01:00:00 16 8 Norte 13 Noroeste 0 933.7 -0.2 64
2019-09-24 00:00:00 17 2 Nordeste 10 Noroeste 0 934.2 0.4 63
2019-09-23 23:00:00 17.4 2 Noroeste 12 Oeste 0 934.1 0.7 63
2019-09-23 22:00:00 18.5 10 Oeste 17 Oeste 0 933.9 0.9 58
2019-09-23 21:00:00 19.6 8 Oeste 17 Oeste 0 933.8 0.9 53
2019-09-23 20:00:00 21.4 10 Oeste 18 Oeste 0 933.4 0.6 44
2019-09-23 19:00:00 22.8 12 Sudoeste 18 Oeste 0 933 0.2 40
2019-09-23 18:00:00 23.8 10 Oeste 22 Oeste 0 932.9 -0.6 36
2019-09-23 17:00:00 25.3 10 Oeste 19 Noroeste 0 932.8 -1 28
2019-09-23 16:00:00 24.1 9 Sudoeste 18 Sudoeste 0 932.8 -1.5 34
2019-09-23 15:00:00 24.3 3 Sur 14 Sudoeste 0 933.5 -1.2 32
2019-09-23 14:00:00 23.2 8 Sur 16 Sur 0 933.8 -0.9 37
2019-09-23 13:00:00 22.1 9 Sur 16 Sur 0 934.3 -0.3 39
2019-09-23 12:00:00 20.4 3 Noroeste 9 Sur 0 934.7 0.9 50
2019-09-23 11:00:00 17.2 4 Sur 8 Sur 0 934.7 1.2 59
2019-09-23 10:00:00 14 0 Calma 6 Noroeste 0 934.6 1.8 72
2019-09-23 09:00:00 9.7 3 Noroeste 5 Noroeste 0 933.8 1.5 88
2019-09-23 08:00:00 9.4 4 Nordeste 9 Sudeste 0 933.5 1.4 84
2019-09-23 07:00:00 9.9 5 Noroeste 14 Noroeste 0 932.8 0.7 83
2019-09-23 06:00:00 10.3 12 Noroeste 17 Noroeste 0 932.3 0.3 82
2019-09-23 05:00:00 9.9 7 Noroeste 12 Norte 0 932.1 0.3 84
2019-09-23 04:00:00 10.9 10 Noroeste 12 Noroeste 0 932.1 0.5 82
2019-09-23 03:00:00 11.4 6 Noroeste 12 Norte 0 932 0.5 82
2019-09-23 02:00:00 12.7 5 Oeste 10 Oeste 0 931.8 0.8 75
2019-09-23 01:00:00 14 11 Oeste 19 Oeste 0 931.6 1.1 72
2019-09-23 00:00:00 14.3 13 Oeste 16 Oeste 0 931.5 1.8 75
2019-09-22 23:00:00 15.5 14 Noroeste 17 Noroeste 0 931 1.8 74
2019-09-22 22:00:00 17.1 10 Oeste 18 Oeste 0 930.5 1.8 67
2019-09-22 21:00:00 18.4 10 Oeste 32 Oeste 0 929.7 1.5 61
2019-09-22 20:00:00 20.5 21 Oeste 39 Oeste 0 929.2 1.2 57
2019-09-22 19:00:00 21.9 21 Oeste 44 Oeste 0 928.7 0.5 60
2019-09-22 18:00:00 23.3 24 Oeste 41 Oeste 0 928.2 -0.2 54
2019-09-22 17:00:00 23.9 24 Oeste 38 Oeste 0 928 -0.8 51
2019-09-22 16:00:00 24.3 22 Oeste 32 Oeste 0 928.2 -1 50
2019-09-22 15:00:00 23.6 18 Oeste 31 Oeste 0 928.4 -0.6 52
2019-09-22 14:00:00 22.3 18 Oeste 33 Oeste 0 928.8 -0.4 59
2019-09-22 13:00:00 20.9 16 Oeste 29 Oeste 0 929.2 0.4 64
2019-09-22 12:00:00 21.1 10 Oeste 31 Noroeste 0 929 0.6 63
2019-09-22 11:00:00 19 20 Oeste 29 Noroeste 0 929.2 1 71
2019-09-22 10:00:00 18.9 15 Oeste 27 Oeste 0 928.8 1.1 73
2019-09-22 09:00:00 16.3 6 Oeste 17 Oeste 0 928.4 0.7 84
2019-09-22 08:00:00 16 11 Oeste 18 Oeste 0 928.2 0.5 84
2019-09-22 07:00:00 16.2 11 Oeste 19 Noroeste 0 927.7 -0.2 82
2019-09-22 06:00:00 15.3 4 Noroeste 12 Oeste 0 927.7 -0.6 86
2019-09-22 05:00:00 15.3 9 Oeste 10 Oeste 0 927.7 -0.7 84
2019-09-22 04:00:00 16.3 3 Norte 6 Oeste 0 927.9 -0.5 79
2019-09-22 03:00:00 17 4 Oeste 7 Oeste 0 928.3 -0.2 76
2019-09-22 02:00:00 18.2 4 Noroeste 10 Oeste 0 928.4 0.2 75
2019-09-22 01:00:00 18.6 8 Oeste 13 Oeste 0 928.4 0.3 76
2019-09-22 00:00:00 19 3 Oeste 5 Noroeste 0 928.5 0.7 77
2019-09-21 23:00:00 19.1 0 Calma 4 Norte 0 928.2 0.5 74
2019-09-21 22:00:00 19.6 4 Norte 8 Oeste 0 928.1 0.7 73
2019-09-21 21:00:00 20.3 8 Oeste 11 Oeste 0 927.8 0.6 69
2019-09-21 20:00:00 21.5 7 Oeste 15 Oeste 0 927.7 0.7 62
2019-09-21 19:00:00 22.5 10 Oeste 21 Oeste 0 927.4 -0.1 55
2019-09-21 18:00:00 24 16 Oeste 26 Oeste 0 927.2 -0.9 47
2019-09-21 17:00:00 24.5 16 Oeste 26 Oeste 0 927 -1.3 43
2019-09-21 16:00:00 24.1 17 Oeste 26 Oeste 0 927.5 -1.5 46
2019-09-21 15:00:00 24.8 15 Oeste 28 Oeste 0 928.1 -1.3 44
2019-09-21 14:00:00 23.9 9 Sudoeste 15 Sur 0 928.3 -0.6 46
2019-09-21 13:00:00 21.1 7 Sudoeste 12 Oeste 0 929 0.2 65
2019-09-21 12:00:00 21.6 7 Sudeste 19 Sudeste 0 929.4 0.7 63
2019-09-21 11:00:00 20.4 2 Sur 9 Norte 0 928.9 -0.2 65
2019-09-21 10:00:00 16.4 5 Noroeste 12 Noroeste 0 928.8 -0.3 80
2019-09-21 09:00:00 14.2 7 Noroeste 16 Norte 0 928.7 -0.4 88
2019-09-21 08:00:00 14.5 13 Noroeste 24 Norte 0 929.1 0.2 85
2019-09-21 07:00:00 15.9 24 Norte 35 Norte 0 929.1 -0.2 79
2019-09-21 06:00:00 16.9 3 Sudoeste 12 Noroeste 0 929.1 -0.5 92
2019-09-21 05:00:00 16.6 5 Nordeste 10 Sudeste 0 928.9 -0.9 90
2019-09-21 04:00:00 17.3 6 Sudeste 17 Sudeste 0 929.3 -0.9 90
2019-09-21 03:00:00 17.7 10 Sudeste 22 Sudeste 0 929.6 -0.5 89
2019-09-21 02:00:00 18 12 Sudeste 19 Sudeste 0 929.8 -0.6 87
2019-09-21 01:00:00 18.2 7 Sudeste 11 Sudeste 0 930.2 -0.6 84
2019-09-21 00:00:00 17.8 2 Nordeste 13 Sudeste 0 930.1 -0.4 83
2019-09-20 23:00:00 18.2 9 Sudeste 18 Sudeste 0 930.4 0.1 82
2019-09-20 22:00:00 18.6 12 Sudeste 22 Sudeste 0 930.8 0.4 83
2019-09-20 21:00:00 18.7 11 Este 19 Sudeste 0 930.5 -0.1 80
2019-09-20 20:00:00 19.2 15 Sudeste 28 Sudeste 0 930.3 -0.3 78
2019-09-20 19:00:00 20.6 16 Sudeste 32 Este 0 930.4 -0.8 71
2019-09-20 18:00:00 21.2 18 Sudeste 32 Este 0 930.6 -0.9 67
2019-09-20 17:00:00 22.1 18 Sudeste 35 Sudeste 0 930.6 -1.4 65
2019-09-20 16:00:00 21.6 18 Sudeste 33 Sudeste 0 931.2 -0.8 66
2019-09-20 15:00:00 22.3 17 Sudeste 26 Sudeste 0 931.5 -0.7 63
2019-09-20 14:00:00 21.2 16 Sudeste 28 Este 0 932 -0.5 66
2019-09-20 13:00:00 21.2 17 Sudeste 29 Sudeste 0 932 -0.9 66
2019-09-20 12:00:00 21.4 14 Este 23 Este 0 932.2 -0.7 64
2019-09-20 11:00:00 20.5 5 Este 10 Sudeste 0 932.5 0 71
2019-09-20 10:00:00 16 6 Noroeste 9 Noroeste 0 932.9 0.9 93
2019-09-20 09:00:00 14.1 4 Norte 6 Norte 0 932.9 1 93
2019-09-20 08:00:00 13.4 2 Sudoeste 9 Sudeste 0 932.5 0.3 93
2019-09-20 07:00:00 13.3 5 Oeste 8 Norte 0 932 -0.4 93
2019-09-20 06:00:00 13.3 6 Norte 9 Norte 0 931.9 -0.6 93
2019-09-20 05:00:00 13.7 3 Noroeste 6 Oeste 0 932.2 -0.4 92
2019-09-20 04:00:00 14 3 Oeste 8 Norte 0 932.4 -0.2 91
2019-09-20 03:00:00 14.5 5 Norte 8 Nordeste 0 932.5 -0.2 91
2019-09-20 02:00:00 15.8 6 Sudoeste 9 Sudeste 0 932.6 -0.1 91
2019-09-20 01:00:00 15.6 3 Nordeste 9 Noroeste 0 932.6 0.2 89
2019-09-20 00:00:00 16.2 5 Nordeste 10 Norte 0 932.7 0.7 87
2019-09-19 23:00:00 17.4 5 Noroeste 11 Noroeste 0 932.7 1.5 83
2019-09-19 22:00:00 19.2 4 Este 13 Este 0 932.4 1.8 64
2019-09-19 21:00:00 20 6 Este 13 Este 0 932 1.5 68
2019-09-19 20:00:00 21.6 10 Este 26 Sudeste 0 931.2 0.7 68
2019-09-19 19:00:00 22.6 18 Sudeste 30 Sudeste 0 930.6 -0.2 62
2019-09-19 18:00:00 23.7 18 Sudeste 33 Sudeste 0 930.5 -0.8 55
2019-09-19 17:00:00 26.2 20 Sudeste 29 Sudeste 0 930.5 -1.2 45
2019-09-19 16:00:00 26.8 16 Sudeste 29 Sudeste 0 930.8 -1.3 39
2019-09-19 15:00:00 26.9 13 Sudeste 23 Este 0 931.3 -1 38
2019-09-19 14:00:00 26.4 9 Sur 18 Sudeste 0 931.7 -0.7 40
2019-09-19 13:00:00 25.5 6 Sudeste 15 Sudeste 0 932.1 -0.1 39
2019-09-19 12:00:00 24.5 8 Sudeste 13 Sudeste 0 932.3 0.6 42
2019-09-19 11:00:00 21.6 4 Noroeste 10 Noroeste 0 932.4 1 53
2019-09-19 10:00:00 18.2 6 Noroeste 12 Norte 0 932.2 0.9 68
2019-09-19 09:00:00 15.4 6 Noroeste 13 Noroeste 0 931.7 0.6 80
2019-09-19 08:00:00 14.1 10 Noroeste 13 Noroeste 0 931.4 0.2 83
2019-09-19 07:00:00 14.7 4 Norte 12 Noroeste 0 931.3 -0.1 82
2019-09-19 06:00:00 15.1 6 Noroeste 12 Noroeste 0 931.1 -0.5 80
2019-09-19 05:00:00 15.5 6 Noroeste 10 Norte 0 931.2 -0.5 83
2019-09-19 04:00:00 15.6 8 Norte 10 Noroeste 0 931.4 -0.4 82
2019-09-19 03:00:00 16 6 Norte 13 Noroeste 0 931.6 -0.4 82
2019-09-19 02:00:00 16 9 Norte 13 Norte 0 931.7 -0.1 86
2019-09-19 01:00:00 16.4 6 Norte 11 Noroeste 0 931.8 0.3 83
2019-09-19 00:00:00 16.9 8 Norte 10 Norte 0 932 1.2 84
2019-09-18 23:00:00 18 7 Noroeste 11 Noroeste 0 931.8 1.8 80
2019-09-18 22:00:00 20.4 5 Este 14 Este 0 931.5 2 67
2019-09-18 21:00:00 21.7 6 Sudeste 21 Sudeste 0 930.8 1.4 68
2019-09-18 20:00:00 23.9 12 Sudeste 22 Sudeste 0 930 0.4 59
2019-09-18 19:00:00 27.6 12 Sudoeste 21 Sudoeste 0 929.5 -0.6 30
2019-09-18 18:00:00 28 9 Sur 18 Sur 0 929.4 -1.1 33
2019-09-18 17:00:00 28.3 9 Sur 20 Sudeste 0 929.6 -1.3 32
2019-09-18 16:00:00 28 10 Sur 22 Sur 0 930.1 -0.9 31
2019-09-18 15:00:00 27.6 10 Sur 18 Sudeste 0 930.5 -0.4 38
2019-09-18 14:00:00 26.5 7 Sur 16 Sur 0 930.9 0 47
2019-09-18 13:00:00 25.8 12 Sur 16 Sur 0 931 0.3 55
2019-09-18 12:00:00 25.7 3 Noroeste 12 Norte 0 930.9 0.4 40
2019-09-18 11:00:00 22.6 9 Norte 14 Norte 0 930.9 0.7 57
2019-09-18 10:00:00 18.2 7 Noroeste 13 Noroeste 0 930.7 0.8 75
2019-09-18 09:00:00 14.5 8 Noroeste 15 Noroeste 0 930.5 0.7 87
2019-09-18 08:00:00 13.1 8 Norte 12 Norte 0 930.2 0.3 89
2019-09-18 07:00:00 13.5 10 Noroeste 14 Noroeste 0 929.9 -0.6 89
2019-09-18 06:00:00 13.7 12 Noroeste 16 Noroeste 0 929.8 -0.8 89
2019-09-18 05:00:00 14 8 Noroeste 13 Noroeste 0 929.9 -1.5 89
2019-09-18 04:00:00 14.7 11 Oeste 15 Noroeste 0 930.5 -0.5 88
2019-09-18 03:00:00 15.3 9 Noroeste 18 Norte 1.2 930.6 0.6 89
2019-09-18 02:00:00 15.7 9 Noroeste 13 Noroeste 0.6 931.4 0.4 90
2019-09-18 01:00:00 15.6 6 Norte 11 Sudoeste 0 931 -0.1 86
2019-09-18 00:00:00 16.3 8 Norte 20 Sudoeste 0 930 -2.8 84
2019-09-17 23:00:00 17 12 Noroeste 22 Sudoeste 0.2 931 0.7 80
2019-09-17 22:00:00 17.2 9 Norte 36 Norte 0 931.1 1.5 75
2019-09-17 21:00:00 15.8 22 Norte 57 Oeste 1.8 932.8 3.4 85
2019-09-15 18:00:00 22.8 20 Sudeste 32 Sudeste 0 933.4 -1.1 65
2019-09-15 17:00:00 23.8 19 Sudeste 34 Este 0 933.4 -2.1 59
2019-09-15 16:00:00 24.1 22 Sudeste 33 Este 0 933.7 -1.9 56
2019-09-15 15:00:00 22 16 Este 28 Este 0 934.5 -0.9 67
2019-09-15 14:00:00 20 12 Este 21 Este 0 935.5 0.6 75
2019-09-15 13:00:00 19.1 9 Este 22 Este 0 935.6 0.9 78
2019-09-15 12:00:00 18.8 6 Nordeste 26 Este 0 935.4 1.2 80
2019-09-15 11:00:00 18.6 12 Nordeste 23 Este 0 934.9 0.6 79
2019-09-15 10:00:00 18.6 11 Nordeste 23 Nordeste 0 934.7 0.8 77
2019-09-15 09:00:00 18.3 9 Este 17 Este 0 934.2 0.1 78
2019-09-15 08:00:00 17.9 6 Nordeste 11 Este 0 934.3 -0.3 77
2019-09-15 07:00:00 17.2 4 Noroeste 8 Nordeste 0 933.9 -1.1 81
2019-09-15 06:00:00 17.8 6 Este 16 Este 0 934.1 -1.9 74
2019-09-15 05:00:00 17.4 5 Nordeste 18 Este 0 934.6 -1.2 74
2019-09-15 04:00:00 17.3 11 Este 23 Este 0 935 -0.9 75
2019-09-15 03:00:00 17 6 Este 14 Sudeste 0 936 -0.3 79
2019-09-15 02:00:00 17.9 7 Este 17 Este 0 935.8 -0.7 69
2019-09-15 01:00:00 17.9 14 Este 21 Este 0 935.9 -0.2 68
2019-09-15 00:00:00 18.6 11 Este 25 Este 0 936.3 1.1 66